sensor_id;sensor_type;location;lat;lon;timestamp;P1;durP1;ratioP1;P2;durP2;ratioP2
13463;SDS011;6804;48.774;9.174;2023-04-06T00:00:33;5.07;;;3.70;;
13463;SDS011;6804;48.774;9.174;2023-04-06T00:03:03;7.10;;;4.43;;
13463;SDS011;6804;48.774;9.174;2023-04-06T00:05:31;5.50;;;4.43;;
13463;SDS011;6804;48.774;9.174;2023-04-06T00:08:01;5.87;;;4.57;;
13463;SDS011;6804;48.774;9.174;2023-04-06T00:10:29;6.37;;;4.50;;
13463;SDS011;6804;48.774;9.174;2023-04-06T00:13:02;5.73;;;4.23;;
13463;SDS011;6804;48.774;9.174;2023-04-06T00:15:36;4.83;;;3.83;;
13463;SDS011;6804;48.774;9.174;2023-04-06T00:18:03;5.93;;;4.63;;
13463;SDS011;6804;48.774;9.174;2023-04-06T00:20:31;7.07;;;5.50;;
13463;SDS011;6804;48.774;9.174;2023-04-06T00:22:58;13.93;;;8.07;;
13463;SDS011;6804;48.774;9.174;2023-04-06T00:25:26;21.93;;;11.80;;
13463;SDS011;6804;48.774;9.174;2023-04-06T00:27:53;14.17;;;9.00;;
13463;SDS011;6804;48.774;9.174;2023-04-06T00:30:20;8.97;;;6.10;;
13463;SDS011;6804;48.774;9.174;2023-04-06T00:32:52;7.83;;;5.60;;
13463;SDS011;6804;48.774;9.174;2023-04-06T00:35:20;5.47;;;4.47;;
13463;SDS011;6804;48.774;9.174;2023-04-06T00:37:54;8.30;;;5.93;;
13463;SDS011;6804;48.774;9.174;2023-04-06T00:40:21;9.33;;;5.77;;
13463;SDS011;6804;48.774;9.174;2023-04-06T00:42:49;12.37;;;7.37;;
13463;SDS011;6804;48.774;9.174;2023-04-06T00:45:19;9.37;;;5.53;;
13463;SDS011;6804;48.774;9.174;2023-04-06T00:47:55;7.13;;;5.43;;
13463;SDS011;6804;48.774;9.174;2023-04-06T00:50:23;17.00;;;10.20;;
13463;SDS011;6804;48.774;9.174;2023-04-06T00:52:50;13.10;;;7.53;;
13463;SDS011;6804;48.774;9.174;2023-04-06T00:55:19;6.67;;;4.93;;
13463;SDS011;6804;48.774;9.174;2023-04-06T00:57:49;9.33;;;5.70;;
13463;SDS011;6804;48.774;9.174;2023-04-06T01:00:16;4.63;;;4.23;;
13463;SDS011;6804;48.774;9.174;2023-04-06T01:02:44;6.10;;;4.43;;
13463;SDS011;6804;48.774;9.174;2023-04-06T01:05:14;7.47;;;4.70;;
13463;SDS011;6804;48.774;9.174;2023-04-06T01:07:42;5.83;;;4.60;;
13463;SDS011;6804;48.774;9.174;2023-04-06T01:10:22;6.40;;;4.40;;
13463;SDS011;6804;48.774;9.174;2023-04-06T01:12:50;5.27;;;4.70;;
13463;SDS011;6804;48.774;9.174;2023-04-06T01:15:20;11.87;;;7.53;;
13463;SDS011;6804;48.774;9.174;2023-04-06T01:17:48;14.23;;;8.87;;
13463;SDS011;6804;48.774;9.174;2023-04-06T01:20:17;19.60;;;12.03;;
13463;SDS011;6804;48.774;9.174;2023-04-06T01:22:46;6.37;;;4.90;;
13463;SDS011;6804;48.774;9.174;2023-04-06T01:25:13;5.23;;;4.73;;
13463;SDS011;6804;48.774;9.174;2023-04-06T01:27:40;8.17;;;6.20;;
13463;SDS011;6804;48.774;9.174;2023-04-06T01:30:10;15.50;;;8.57;;
13463;SDS011;6804;48.774;9.174;2023-04-06T01:32:42;10.30;;;5.20;;
13463;SDS011;6804;48.774;9.174;2023-04-06T01:35:10;7.87;;;5.40;;
13463;SDS011;6804;48.774;9.174;2023-04-06T01:37:46;5.63;;;4.60;;
13463;SDS011;6804;48.774;9.174;2023-04-06T01:40:13;6.43;;;4.47;;
13463;SDS011;6804;48.774;9.174;2023-04-06T01:42:41;5.67;;;4.10;;
13463;SDS011;6804;48.774;9.174;2023-04-06T01:45:11;5.77;;;4.63;;
13463;SDS011;6804;48.774;9.174;2023-04-06T01:47:42;5.50;;;4.50;;
13463;SDS011;6804;48.774;9.174;2023-04-06T01:50:11;5.80;;;4.63;;
13463;SDS011;6804;48.774;9.174;2023-04-06T01:52:39;7.37;;;4.80;;
13463;SDS011;6804;48.774;9.174;2023-04-06T01:55:08;4.50;;;4.10;;
13463;SDS011;6804;48.774;9.174;2023-04-06T01:57:35;5.23;;;4.07;;
13463;SDS011;6804;48.774;9.174;2023-04-06T02:00:06;6.53;;;4.50;;
13463;SDS011;6804;48.774;9.174;2023-04-06T02:02:34;5.27;;;4.67;;
13463;SDS011;6804;48.774;9.174;2023-04-06T02:05:01;6.97;;;4.97;;
13463;SDS011;6804;48.774;9.174;2023-04-06T02:07:29;9.20;;;5.23;;
13463;SDS011;6804;48.774;9.174;2023-04-06T02:09:56;6.73;;;5.37;;
13463;SDS011;6804;48.774;9.174;2023-04-06T02:12:28;9.00;;;5.07;;
13463;SDS011;6804;48.774;9.174;2023-04-06T02:14:55;5.63;;;4.47;;
13463;SDS011;6804;48.774;9.174;2023-04-06T02:17:23;7.07;;;5.00;;
13463;SDS011;6804;48.774;9.174;2023-04-06T02:19:50;6.13;;;4.70;;
13463;SDS011;6804;48.774;9.174;2023-04-06T02:22:17;5.90;;;4.90;;
13463;SDS011;6804;48.774;9.174;2023-04-06T02:24:45;6.13;;;4.33;;
13463;SDS011;6804;48.774;9.174;2023-04-06T02:27:13;5.83;;;4.70;;
13463;SDS011;6804;48.774;9.174;2023-04-06T02:29:45;6.27;;;4.63;;
13463;SDS011;6804;48.774;9.174;2023-04-06T02:32:12;8.83;;;4.77;;
13463;SDS011;6804;48.774;9.174;2023-04-06T02:34:46;5.63;;;4.97;;
13463;SDS011;6804;48.774;9.174;2023-04-06T02:37:20;5.50;;;4.63;;
13463;SDS011;6804;48.774;9.174;2023-04-06T02:39:49;5.60;;;4.70;;
13463;SDS011;6804;48.774;9.174;2023-04-06T02:42:17;6.20;;;4.57;;
13463;SDS011;6804;48.774;9.174;2023-04-06T02:44:48;5.90;;;4.80;;
13463;SDS011;6804;48.774;9.174;2023-04-06T02:47:16;6.80;;;5.20;;
13463;SDS011;6804;48.774;9.174;2023-04-06T02:49:43;8.17;;;5.00;;
13463;SDS011;6804;48.774;9.174;2023-04-06T02:52:11;6.20;;;4.60;;
13463;SDS011;6804;48.774;9.174;2023-04-06T02:54:38;5.60;;;5.10;;
13463;SDS011;6804;48.774;9.174;2023-04-06T02:57:05;6.77;;;5.10;;
13463;SDS011;6804;48.774;9.174;2023-04-06T02:59:34;7.27;;;4.87;;
13463;SDS011;6804;48.774;9.174;2023-04-06T03:02:03;7.03;;;4.60;;
13463;SDS011;6804;48.774;9.174;2023-04-06T03:04:30;6.87;;;4.70;;
13463;SDS011;6804;48.774;9.174;2023-04-06T03:06:57;7.40;;;5.00;;
13463;SDS011;6804;48.774;9.174;2023-04-06T03:09:25;5.83;;;5.00;;
13463;SDS011;6804;48.774;9.174;2023-04-06T03:11:53;8.50;;;5.60;;
13463;SDS011;6804;48.774;9.174;2023-04-06T03:14:22;5.93;;;4.87;;
13463;SDS011;6804;48.774;9.174;2023-04-06T03:16:50;6.37;;;4.97;;
13463;SDS011;6804;48.774;9.174;2023-04-06T03:19:19;6.80;;;4.70;;
13463;SDS011;6804;48.774;9.174;2023-04-06T03:21:49;6.43;;;4.70;;
13463;SDS011;6804;48.774;9.174;2023-04-06T03:24:18;7.53;;;5.10;;
13463;SDS011;6804;48.774;9.174;2023-04-06T03:26:48;6.87;;;4.90;;
13463;SDS011;6804;48.774;9.174;2023-04-06T03:29:15;10.40;;;5.73;;
13463;SDS011;6804;48.774;9.174;2023-04-06T03:31:43;8.00;;;5.40;;
13463;SDS011;6804;48.774;9.174;2023-04-06T03:34:10;7.83;;;5.80;;
13463;SDS011;6804;48.774;9.174;2023-04-06T03:36:39;7.80;;;5.47;;
13463;SDS011;6804;48.774;9.174;2023-04-06T03:39:07;6.30;;;5.23;;
13463;SDS011;6804;48.774;9.174;2023-04-06T03:41:34;8.13;;;5.60;;
13463;SDS011;6804;48.774;9.174;2023-04-06T03:44:02;7.33;;;5.40;;
13463;SDS011;6804;48.774;9.174;2023-04-06T03:46:29;8.60;;;5.53;;
13463;SDS011;6804;48.774;9.174;2023-04-06T03:48:56;6.67;;;5.23;;
13463;SDS011;6804;48.774;9.174;2023-04-06T03:51:27;5.70;;;4.90;;
13463;SDS011;6804;48.774;9.174;2023-04-06T03:53:59;7.80;;;5.30;;
13463;SDS011;6804;48.774;9.174;2023-04-06T03:56:26;6.13;;;4.67;;
13463;SDS011;6804;48.774;9.174;2023-04-06T03:58:57;5.83;;;5.23;;
13463;SDS011;6804;48.774;9.174;2023-04-06T04:01:27;5.43;;;4.83;;
13463;SDS011;6804;48.774;9.174;2023-04-06T04:03:54;7.90;;;5.97;;
13463;SDS011;6804;48.774;9.174;2023-04-06T04:06:24;6.77;;;5.67;;
13463;SDS011;6804;48.774;9.174;2023-04-06T04:08:54;6.93;;;5.10;;
13463;SDS011;6804;48.774;9.174;2023-04-06T04:11:23;6.33;;;5.60;;
13463;SDS011;6804;48.774;9.174;2023-04-06T04:13:50;6.07;;;5.40;;
13463;SDS011;6804;48.774;9.174;2023-04-06T04:16:17;11.10;;;5.10;;
13463;SDS011;6804;48.774;9.174;2023-04-06T04:18:45;9.13;;;5.50;;
13463;SDS011;6804;48.774;9.174;2023-04-06T04:21:15;8.50;;;6.00;;
13463;SDS011;6804;48.774;9.174;2023-04-06T04:23:46;6.60;;;5.87;;
13463;SDS011;6804;48.774;9.174;2023-04-06T04:26:13;7.03;;;6.03;;
13463;SDS011;6804;48.774;9.174;2023-04-06T04:28:42;6.53;;;5.53;;
13463;SDS011;6804;48.774;9.174;2023-04-06T04:31:10;7.17;;;5.87;;
13463;SDS011;6804;48.774;9.174;2023-04-06T04:33:37;7.53;;;6.00;;
13463;SDS011;6804;48.774;9.174;2023-04-06T04:36:10;7.07;;;5.70;;
13463;SDS011;6804;48.774;9.174;2023-04-06T04:38:38;5.73;;;5.20;;
13463;SDS011;6804;48.774;9.174;2023-04-06T04:41:05;6.50;;;5.50;;
13463;SDS011;6804;48.774;9.174;2023-04-06T04:43:35;9.23;;;5.90;;
13463;SDS011;6804;48.774;9.174;2023-04-06T04:46:05;7.40;;;5.40;;
13463;SDS011;6804;48.774;9.174;2023-04-06T04:48:33;8.17;;;5.90;;
13463;SDS011;6804;48.774;9.174;2023-04-06T04:51:00;7.87;;;5.80;;
13463;SDS011;6804;48.774;9.174;2023-04-06T04:53:28;7.03;;;6.13;;
13463;SDS011;6804;48.774;9.174;2023-04-06T04:55:57;7.33;;;5.47;;
13463;SDS011;6804;48.774;9.174;2023-04-06T04:58:28;7.80;;;5.80;;
13463;SDS011;6804;48.774;9.174;2023-04-06T05:00:56;10.30;;;5.80;;
13463;SDS011;6804;48.774;9.174;2023-04-06T05:03:27;8.43;;;5.97;;
13463;SDS011;6804;48.774;9.174;2023-04-06T05:05:56;8.40;;;5.67;;
13463;SDS011;6804;48.774;9.174;2023-04-06T05:08:23;9.10;;;5.70;;
13463;SDS011;6804;48.774;9.174;2023-04-06T05:10:51;10.80;;;6.67;;
13463;SDS011;6804;48.774;9.174;2023-04-06T05:13:21;9.33;;;6.10;;
13463;SDS011;6804;48.774;9.174;2023-04-06T05:15:49;7.07;;;5.60;;
13463;SDS011;6804;48.774;9.174;2023-04-06T05:18:17;7.73;;;5.90;;
13463;SDS011;6804;48.774;9.174;2023-04-06T05:20:49;7.07;;;6.00;;
13463;SDS011;6804;48.774;9.174;2023-04-06T05:23:17;6.70;;;5.47;;
13463;SDS011;6804;48.774;9.174;2023-04-06T05:25:48;8.57;;;6.13;;
13463;SDS011;6804;48.774;9.174;2023-04-06T05:28:21;7.27;;;5.90;;
13463;SDS011;6804;48.774;9.174;2023-04-06T05:30:49;6.70;;;6.00;;
13463;SDS011;6804;48.774;9.174;2023-04-06T05:33:16;8.17;;;6.73;;
13463;SDS011;6804;48.774;9.174;2023-04-06T05:35:44;11.87;;;7.57;;
13463;SDS011;6804;48.774;9.174;2023-04-06T05:38:13;9.80;;;7.10;;
13463;SDS011;6804;48.774;9.174;2023-04-06T05:40:41;9.93;;;6.07;;
13463;SDS011;6804;48.774;9.174;2023-04-06T05:43:09;8.67;;;6.43;;
13463;SDS011;6804;48.774;9.174;2023-04-06T05:45:38;7.17;;;5.87;;
13463;SDS011;6804;48.774;9.174;2023-04-06T05:48:07;8.73;;;6.90;;
13463;SDS011;6804;48.774;9.174;2023-04-06T05:50:35;9.97;;;6.40;;
13463;SDS011;6804;48.774;9.174;2023-04-06T05:53:02;7.03;;;5.80;;
13463;SDS011;6804;48.774;9.174;2023-04-06T05:55:32;9.17;;;6.70;;
13463;SDS011;6804;48.774;9.174;2023-04-06T05:57:59;8.47;;;6.77;;
13463;SDS011;6804;48.774;9.174;2023-04-06T06:00:33;9.17;;;6.87;;
13463;SDS011;6804;48.774;9.174;2023-04-06T06:03:01;8.33;;;6.20;;
13463;SDS011;6804;48.774;9.174;2023-04-06T06:05:33;10.83;;;7.07;;
13463;SDS011;6804;48.774;9.174;2023-04-06T06:08:03;7.33;;;6.30;;
13463;SDS011;6804;48.774;9.174;2023-04-06T06:10:33;8.23;;;6.43;;
13463;SDS011;6804;48.774;9.174;2023-04-06T06:13:01;8.00;;;6.77;;
13463;SDS011;6804;48.774;9.174;2023-04-06T06:15:29;8.73;;;6.57;;
13463;SDS011;6804;48.774;9.174;2023-04-06T06:17:56;10.33;;;6.83;;
13463;SDS011;6804;48.774;9.174;2023-04-06T06:20:24;8.50;;;6.73;;
13463;SDS011;6804;48.774;9.174;2023-04-06T06:22:54;9.20;;;7.13;;
13463;SDS011;6804;48.774;9.174;2023-04-06T06:25:22;10.60;;;6.90;;
13463;SDS011;6804;48.774;9.174;2023-04-06T06:27:55;9.47;;;6.67;;
13463;SDS011;6804;48.774;9.174;2023-04-06T06:30:22;11.23;;;8.03;;
13463;SDS011;6804;48.774;9.174;2023-04-06T06:32:50;12.23;;;7.63;;
13463;SDS011;6804;48.774;9.174;2023-04-06T06:35:18;12.70;;;8.23;;
13463;SDS011;6804;48.774;9.174;2023-04-06T06:37:45;11.40;;;8.90;;
13463;SDS011;6804;48.774;9.174;2023-04-06T06:40:15;10.60;;;7.60;;
13463;SDS011;6804;48.774;9.174;2023-04-06T06:42:43;11.30;;;7.70;;
13463;SDS011;6804;48.774;9.174;2023-04-06T06:45:12;9.47;;;8.10;;
13463;SDS011;6804;48.774;9.174;2023-04-06T06:47:40;10.40;;;8.10;;
13463;SDS011;6804;48.774;9.174;2023-04-06T06:50:08;12.70;;;7.77;;
13463;SDS011;6804;48.774;9.174;2023-04-06T06:52:38;13.23;;;9.37;;
13463;SDS011;6804;48.774;9.174;2023-04-06T06:55:07;14.57;;;8.47;;
13463;SDS011;6804;48.774;9.174;2023-04-06T06:57:36;14.77;;;8.63;;
13463;SDS011;6804;48.774;9.174;2023-04-06T07:00:04;12.57;;;8.23;;
13463;SDS011;6804;48.774;9.174;2023-04-06T07:02:35;13.70;;;8.53;;
13463;SDS011;6804;48.774;9.174;2023-04-06T07:05:03;14.03;;;9.20;;
13463;SDS011;6804;48.774;9.174;2023-04-06T07:07:31;13.37;;;8.20;;
13463;SDS011;6804;48.774;9.174;2023-04-06T07:10:02;11.50;;;8.53;;
13463;SDS011;6804;48.774;9.174;2023-04-06T07:12:30;10.20;;;8.47;;
13463;SDS011;6804;48.774;9.174;2023-04-06T07:14:58;11.77;;;8.43;;
13463;SDS011;6804;48.774;9.174;2023-04-06T07:17:26;9.53;;;7.63;;
13463;SDS011;6804;48.774;9.174;2023-04-06T07:19:55;12.17;;;7.87;;
13463;SDS011;6804;48.774;9.174;2023-04-06T07:22:22;12.90;;;8.43;;
13463;SDS011;6804;48.774;9.174;2023-04-06T07:24:56;9.67;;;8.23;;
13463;SDS011;6804;48.774;9.174;2023-04-06T07:27:26;11.17;;;8.13;;
13463;SDS011;6804;48.774;9.174;2023-04-06T07:29:56;10.53;;;8.00;;
13463;SDS011;6804;48.774;9.174;2023-04-06T07:32:32;11.90;;;8.17;;
13463;SDS011;6804;48.774;9.174;2023-04-06T07:35:08;13.80;;;9.07;;
13463;SDS011;6804;48.774;9.174;2023-04-06T07:37:36;10.40;;;8.40;;
13463;SDS011;6804;48.774;9.174;2023-04-06T07:40:04;12.13;;;9.17;;
13463;SDS011;6804;48.774;9.174;2023-04-06T07:42:35;10.80;;;8.00;;
13463;SDS011;6804;48.774;9.174;2023-04-06T07:45:05;10.90;;;8.50;;
13463;SDS011;6804;48.774;9.174;2023-04-06T07:47:34;11.87;;;8.87;;
13463;SDS011;6804;48.774;9.174;2023-04-06T07:50:02;10.27;;;8.87;;
13463;SDS011;6804;48.774;9.174;2023-04-06T07:52:32;10.00;;;8.87;;
13463;SDS011;6804;48.774;9.174;2023-04-06T07:55:01;13.13;;;9.23;;
13463;SDS011;6804;48.774;9.174;2023-04-06T07:57:32;9.50;;;8.50;;
13463;SDS011;6804;48.774;9.174;2023-04-06T08:00:02;9.37;;;8.33;;
13463;SDS011;6804;48.774;9.174;2023-04-06T08:02:35;14.67;;;9.07;;
13463;SDS011;6804;48.774;9.174;2023-04-06T08:05:03;14.87;;;9.10;;
13463;SDS011;6804;48.774;9.174;2023-04-06T08:07:34;15.13;;;9.07;;
13463;SDS011;6804;48.774;9.174;2023-04-06T08:10:02;12.97;;;8.40;;
13463;SDS011;6804;48.774;9.174;2023-04-06T08:12:32;13.13;;;9.10;;
13463;SDS011;6804;48.774;9.174;2023-04-06T08:15:00;10.97;;;9.10;;
13463;SDS011;6804;48.774;9.174;2023-04-06T08:17:28;9.03;;;8.13;;
13463;SDS011;6804;48.774;9.174;2023-04-06T08:19:59;13.50;;;8.80;;
13463;SDS011;6804;48.774;9.174;2023-04-06T08:22:28;9.83;;;8.40;;
13463;SDS011;6804;48.774;9.174;2023-04-06T08:24:57;14.27;;;8.87;;
13463;SDS011;6804;48.774;9.174;2023-04-06T08:27:25;9.93;;;8.80;;
13463;SDS011;6804;48.774;9.174;2023-04-06T08:29:53;11.77;;;8.97;;
13463;SDS011;6804;48.774;9.174;2023-04-06T08:32:27;11.03;;;8.17;;
13463;SDS011;6804;48.774;9.174;2023-04-06T08:34:57;13.43;;;8.57;;
13463;SDS011;6804;48.774;9.174;2023-04-06T08:37:27;11.17;;;7.87;;
13463;SDS011;6804;48.774;9.174;2023-04-06T08:39:57;10.37;;;9.10;;
13463;SDS011;6804;48.774;9.174;2023-04-06T08:42:25;11.47;;;9.33;;
13463;SDS011;6804;48.774;9.174;2023-04-06T08:44:58;10.80;;;8.83;;
13463;SDS011;6804;48.774;9.174;2023-04-06T08:47:26;13.00;;;9.43;;
13463;SDS011;6804;48.774;9.174;2023-04-06T08:49:58;9.53;;;8.53;;
13463;SDS011;6804;48.774;9.174;2023-04-06T08:52:30;13.13;;;8.67;;
13463;SDS011;6804;48.774;9.174;2023-04-06T08:55:00;12.07;;;9.37;;
13463;SDS011;6804;48.774;9.174;2023-04-06T08:57:28;12.63;;;8.50;;
13463;SDS011;6804;48.774;9.174;2023-04-06T09:00:00;12.67;;;8.60;;
13463;SDS011;6804;48.774;9.174;2023-04-06T09:02:28;12.17;;;9.27;;
13463;SDS011;6804;48.774;9.174;2023-04-06T09:04:56;14.30;;;9.30;;
13463;SDS011;6804;48.774;9.174;2023-04-06T09:07:24;13.60;;;8.47;;
13463;SDS011;6804;48.774;9.174;2023-04-06T09:10:00;9.10;;;7.90;;
13463;SDS011;6804;48.774;9.174;2023-04-06T09:12:28;10.90;;;8.23;;
13463;SDS011;6804;48.774;9.174;2023-04-06T09:14:57;8.50;;;7.60;;
13463;SDS011;6804;48.774;9.174;2023-04-06T09:17:26;9.67;;;7.83;;
13463;SDS011;6804;48.774;9.174;2023-04-06T09:19:59;10.70;;;7.93;;
13463;SDS011;6804;48.774;9.174;2023-04-06T09:22:34;8.73;;;7.83;;
13463;SDS011;6804;48.774;9.174;2023-04-06T09:25:17;10.03;;;8.17;;
13463;SDS011;6804;48.774;9.174;2023-04-06T09:27:46;9.00;;;8.10;;
13463;SDS011;6804;48.774;9.174;2023-04-06T09:30:25;10.63;;;7.67;;
13463;SDS011;6804;48.774;9.174;2023-04-06T09:32:53;10.93;;;7.97;;
13463;SDS011;6804;48.774;9.174;2023-04-06T09:35:22;10.33;;;7.90;;
13463;SDS011;6804;48.774;9.174;2023-04-06T09:37:52;10.00;;;8.23;;
13463;SDS011;6804;48.774;9.174;2023-04-06T09:40:21;10.03;;;8.27;;
13463;SDS011;6804;48.774;9.174;2023-04-06T09:42:50;11.57;;;7.80;;
13463;SDS011;6804;48.774;9.174;2023-04-06T09:45:22;9.97;;;7.67;;
13463;SDS011;6804;48.774;9.174;2023-04-06T09:47:51;9.23;;;6.97;;
13463;SDS011;6804;48.774;9.174;2023-04-06T09:50:21;8.67;;;7.27;;
13463;SDS011;6804;48.774;9.174;2023-04-06T09:52:50;11.77;;;7.73;;
13463;SDS011;6804;48.774;9.174;2023-04-06T09:55:22;8.87;;;7.20;;
13463;SDS011;6804;48.774;9.174;2023-04-06T09:57:55;7.73;;;6.90;;
13463;SDS011;6804;48.774;9.174;2023-04-06T10:00:29;7.87;;;7.07;;
13463;SDS011;6804;48.774;9.174;2023-04-06T10:03:04;9.63;;;7.10;;
13463;SDS011;6804;48.774;9.174;2023-04-06T10:05:46;10.00;;;6.60;;
13463;SDS011;6804;48.774;9.174;2023-04-06T10:08:24;7.63;;;6.83;;
13463;SDS011;6804;48.774;9.174;2023-04-06T10:10:55;7.83;;;6.27;;
13463;SDS011;6804;48.774;9.174;2023-04-06T10:13:28;8.97;;;7.20;;
13463;SDS011;6804;48.774;9.174;2023-04-06T10:15:56;7.00;;;6.23;;
13463;SDS011;6804;48.774;9.174;2023-04-06T10:18:31;8.20;;;6.40;;
13463;SDS011;6804;48.774;9.174;2023-04-06T10:21:04;9.00;;;5.93;;
13463;SDS011;6804;48.774;9.174;2023-04-06T10:23:36;6.90;;;6.20;;
13463;SDS011;6804;48.774;9.174;2023-04-06T10:26:12;7.10;;;6.40;;
13463;SDS011;6804;48.774;9.174;2023-04-06T10:28:41;6.87;;;6.20;;
13463;SDS011;6804;48.774;9.174;2023-04-06T10:31:10;7.03;;;5.93;;
13463;SDS011;6804;48.774;9.174;2023-04-06T10:33:38;7.93;;;6.33;;
13463;SDS011;6804;48.774;9.174;2023-04-06T10:36:10;7.43;;;6.10;;
13463;SDS011;6804;48.774;9.174;2023-04-06T10:38:41;6.67;;;5.93;;
13463;SDS011;6804;48.774;9.174;2023-04-06T10:41:11;6.73;;;5.87;;
13463;SDS011;6804;48.774;9.174;2023-04-06T10:43:41;6.90;;;5.87;;
13463;SDS011;6804;48.774;9.174;2023-04-06T10:46:09;7.87;;;6.70;;
13463;SDS011;6804;48.774;9.174;2023-04-06T10:48:38;7.50;;;6.17;;
13463;SDS011;6804;48.774;9.174;2023-04-06T10:51:11;6.90;;;6.20;;
13463;SDS011;6804;48.774;9.174;2023-04-06T10:53:41;5.83;;;5.33;;
13463;SDS011;6804;48.774;9.174;2023-04-06T10:56:13;7.00;;;5.23;;
13463;SDS011;6804;48.774;9.174;2023-04-06T10:58:45;7.30;;;6.20;;
13463;SDS011;6804;48.774;9.174;2023-04-06T11:01:14;7.50;;;6.00;;
13463;SDS011;6804;48.774;9.174;2023-04-06T11:03:43;6.20;;;5.60;;
13463;SDS011;6804;48.774;9.174;2023-04-06T11:06:17;7.63;;;6.13;;
13463;SDS011;6804;48.774;9.174;2023-04-06T11:08:49;8.87;;;7.17;;
13463;SDS011;6804;48.774;9.174;2023-04-06T11:11:19;7.87;;;6.63;;
13463;SDS011;6804;48.774;9.174;2023-04-06T11:13:49;7.10;;;5.97;;
13463;SDS011;6804;48.774;9.174;2023-04-06T11:16:23;7.60;;;6.50;;
13463;SDS011;6804;48.774;9.174;2023-04-06T11:18:53;8.27;;;6.40;;
13463;SDS011;6804;48.774;9.174;2023-04-06T11:21:34;10.53;;;6.70;;
13463;SDS011;6804;48.774;9.174;2023-04-06T11:24:05;6.20;;;5.60;;
13463;SDS011;6804;48.774;9.174;2023-04-06T11:26:38;6.83;;;5.50;;
13463;SDS011;6804;48.774;9.174;2023-04-06T11:29:12;8.00;;;5.87;;
13463;SDS011;6804;48.774;9.174;2023-04-06T11:31:42;9.13;;;6.83;;
13463;SDS011;6804;48.774;9.174;2023-04-06T11:34:13;10.83;;;7.67;;
13463;SDS011;6804;48.774;9.174;2023-04-06T11:36:45;20.00;;;12.80;;
13463;SDS011;6804;48.774;9.174;2023-04-06T11:39:18;9.63;;;6.97;;
13463;SDS011;6804;48.774;9.174;2023-04-06T11:41:57;10.27;;;6.87;;
13463;SDS011;6804;48.774;9.174;2023-04-06T11:44:31;6.27;;;5.20;;
13463;SDS011;6804;48.774;9.174;2023-04-06T11:47:04;7.40;;;6.57;;
13463;SDS011;6804;48.774;9.174;2023-04-06T11:49:36;5.87;;;5.27;;
13463;SDS011;6804;48.774;9.174;2023-04-06T11:52:14;6.70;;;5.17;;
13463;SDS011;6804;48.774;9.174;2023-04-06T11:54:43;6.83;;;6.07;;
13463;SDS011;6804;48.774;9.174;2023-04-06T11:57:15;7.30;;;6.00;;
13463;SDS011;6804;48.774;9.174;2023-04-06T11:59:44;6.50;;;5.80;;
13463;SDS011;6804;48.774;9.174;2023-04-06T12:02:12;5.60;;;5.00;;
13463;SDS011;6804;48.774;9.174;2023-04-06T12:04:46;7.13;;;5.13;;
13463;SDS011;6804;48.774;9.174;2023-04-06T12:07:14;6.70;;;5.97;;
13463;SDS011;6804;48.774;9.174;2023-04-06T12:09:42;5.97;;;5.33;;
13463;SDS011;6804;48.774;9.174;2023-04-06T12:12:12;7.70;;;6.40;;
13463;SDS011;6804;48.774;9.174;2023-04-06T12:14:45;8.70;;;5.80;;
13463;SDS011;6804;48.774;9.174;2023-04-06T12:17:13;7.10;;;5.67;;
13463;SDS011;6804;48.774;9.174;2023-04-06T12:19:44;6.20;;;5.50;;
13463;SDS011;6804;48.774;9.174;2023-04-06T12:22:14;5.77;;;5.20;;
13463;SDS011;6804;48.774;9.174;2023-04-06T12:24:42;6.27;;;5.67;;
13463;SDS011;6804;48.774;9.174;2023-04-06T12:27:10;8.30;;;5.77;;
13463;SDS011;6804;48.774;9.174;2023-04-06T12:29:40;8.20;;;5.97;;
13463;SDS011;6804;48.774;9.174;2023-04-06T12:32:11;6.27;;;4.97;;
13463;SDS011;6804;48.774;9.174;2023-04-06T12:34:44;7.00;;;5.50;;
13463;SDS011;6804;48.774;9.174;2023-04-06T12:37:12;6.17;;;5.10;;
13463;SDS011;6804;48.774;9.174;2023-04-06T12:39:40;5.80;;;5.00;;
13463;SDS011;6804;48.774;9.174;2023-04-06T12:42:09;6.17;;;5.37;;
13463;SDS011;6804;48.774;9.174;2023-04-06T12:44:46;7.20;;;5.80;;
13463;SDS011;6804;48.774;9.174;2023-04-06T12:47:14;5.83;;;4.93;;
13463;SDS011;6804;48.774;9.174;2023-04-06T12:49:45;8.90;;;5.60;;
13463;SDS011;6804;48.774;9.174;2023-04-06T12:52:16;6.90;;;5.40;;
13463;SDS011;6804;48.774;9.174;2023-04-06T12:54:45;9.67;;;7.40;;
13463;SDS011;6804;48.774;9.174;2023-04-06T12:57:14;7.73;;;5.20;;
13463;SDS011;6804;48.774;9.174;2023-04-06T12:59:44;6.63;;;5.37;;
13463;SDS011;6804;48.774;9.174;2023-04-06T13:02:15;7.30;;;5.03;;
13463;SDS011;6804;48.774;9.174;2023-04-06T13:04:45;6.30;;;5.13;;
13463;SDS011;6804;48.774;9.174;2023-04-06T13:07:13;6.13;;;5.40;;
13463;SDS011;6804;48.774;9.174;2023-04-06T13:09:46;5.10;;;4.60;;
13463;SDS011;6804;48.774;9.174;2023-04-06T13:12:14;7.17;;;5.73;;
13463;SDS011;6804;48.774;9.174;2023-04-06T13:14:47;6.10;;;4.90;;
13463;SDS011;6804;48.774;9.174;2023-04-06T13:17:18;6.77;;;5.27;;
13463;SDS011;6804;48.774;9.174;2023-04-06T13:19:46;10.93;;;6.30;;
13463;SDS011;6804;48.774;9.174;2023-04-06T13:22:16;6.40;;;5.60;;
13463;SDS011;6804;48.774;9.174;2023-04-06T13:24:44;6.20;;;5.20;;
13463;SDS011;6804;48.774;9.174;2023-04-06T13:27:12;10.20;;;5.73;;
13463;SDS011;6804;48.774;9.174;2023-04-06T13:29:40;7.67;;;5.20;;
13463;SDS011;6804;48.774;9.174;2023-04-06T13:32:10;6.30;;;5.40;;
13463;SDS011;6804;48.774;9.174;2023-04-06T13:34:38;6.17;;;5.10;;
13463;SDS011;6804;48.774;9.174;2023-04-06T13:37:10;5.73;;;4.73;;
13463;SDS011;6804;48.774;9.174;2023-04-06T13:39:38;6.13;;;4.70;;
13463;SDS011;6804;48.774;9.174;2023-04-06T13:42:07;6.50;;;5.40;;
13463;SDS011;6804;48.774;9.174;2023-04-06T13:44:35;5.43;;;4.53;;
13463;SDS011;6804;48.774;9.174;2023-04-06T13:47:05;6.03;;;4.90;;
13463;SDS011;6804;48.774;9.174;2023-04-06T13:49:36;7.53;;;5.80;;
13463;SDS011;6804;48.774;9.174;2023-04-06T13:52:04;9.63;;;6.20;;
13463;SDS011;6804;48.774;9.174;2023-04-06T13:54:32;7.13;;;5.83;;
13463;SDS011;6804;48.774;9.174;2023-04-06T13:57:01;6.50;;;5.43;;
13463;SDS011;6804;48.774;9.174;2023-04-06T13:59:32;8.50;;;4.97;;
13463;SDS011;6804;48.774;9.174;2023-04-06T14:02:01;8.03;;;5.63;;
13463;SDS011;6804;48.774;9.174;2023-04-06T14:04:35;6.03;;;4.60;;
13463;SDS011;6804;48.774;9.174;2023-04-06T14:07:03;7.10;;;5.37;;
13463;SDS011;6804;48.774;9.174;2023-04-06T14:09:34;8.37;;;5.40;;
13463;SDS011;6804;48.774;9.174;2023-04-06T14:12:05;6.57;;;5.00;;
13463;SDS011;6804;48.774;9.174;2023-04-06T14:14:33;6.73;;;5.23;;
13463;SDS011;6804;48.774;9.174;2023-04-06T14:17:06;6.53;;;5.20;;
13463;SDS011;6804;48.774;9.174;2023-04-06T14:19:36;6.40;;;5.43;;
13463;SDS011;6804;48.774;9.174;2023-04-06T14:22:05;6.93;;;5.23;;
13463;SDS011;6804;48.774;9.174;2023-04-06T14:24:33;9.90;;;5.87;;
13463;SDS011;6804;48.774;9.174;2023-04-06T14:27:04;5.70;;;5.10;;
13463;SDS011;6804;48.774;9.174;2023-04-06T14:29:34;8.00;;;4.90;;
13463;SDS011;6804;48.774;9.174;2023-04-06T14:32:03;11.70;;;5.37;;
13463;SDS011;6804;48.774;9.174;2023-04-06T14:34:31;6.13;;;4.93;;
13463;SDS011;6804;48.774;9.174;2023-04-06T14:37:00;10.57;;;6.23;;
13463;SDS011;6804;48.774;9.174;2023-04-06T14:39:28;6.70;;;5.50;;
13463;SDS011;6804;48.774;9.174;2023-04-06T14:41:58;7.00;;;5.33;;
13463;SDS011;6804;48.774;9.174;2023-04-06T14:44:29;21.80;;;7.00;;
13463;SDS011;6804;48.774;9.174;2023-04-06T14:47:00;10.93;;;6.37;;
13463;SDS011;6804;48.774;9.174;2023-04-06T14:49:29;7.87;;;6.07;;
13463;SDS011;6804;48.774;9.174;2023-04-06T14:51:57;7.73;;;6.03;;
13463;SDS011;6804;48.774;9.174;2023-04-06T14:54:28;5.47;;;4.90;;
13463;SDS011;6804;48.774;9.174;2023-04-06T14:56:58;6.13;;;5.10;;
13463;SDS011;6804;48.774;9.174;2023-04-06T14:59:27;8.77;;;4.80;;
13463;SDS011;6804;48.774;9.174;2023-04-06T15:01:55;7.57;;;5.67;;
13463;SDS011;6804;48.774;9.174;2023-04-06T15:04:26;8.03;;;6.53;;
13463;SDS011;6804;48.774;9.174;2023-04-06T15:06:54;5.53;;;5.03;;
13463;SDS011;6804;48.774;9.174;2023-04-06T15:09:27;8.57;;;6.93;;
13463;SDS011;6804;48.774;9.174;2023-04-06T15:11:55;6.07;;;4.80;;